Time;durP1;ratioP1;P1;durP2;ratioP2;P2;SDS_P1;SDS_P2;PMS_P1;PMS_P2;Temp;Humidity;BMP_temperature;BMP_pressure;BME280_temperature;BME280_humidity;BME280_pressure;Samples;Min_cycle;Max_cycle;Signal;HPM_P1;HPM_P2
2021/07/16 00:02:26;;;;;;;5.70;3.97;;;22.90;99.90;;;;;;5071262;28;20231;-73
2021/07/16 00:04:52;;;;;;;4.95;4.65;;;22.80;99.90;;;;;;5071295;28;20245;-73
2021/07/16 00:07:19;;;;;;;5.05;4.18;;;22.80;99.90;;;;;;5070754;28;20723;-73
2021/07/16 00:09:46;;;;;;;5.45;4.68;;;22.80;99.90;;;;;;5070720;28;20705;-73
2021/07/16 00:12:12;;;;;;;4.70;4.30;;;22.80;99.90;;;;;;5070663;28;20451;-74
2021/07/16 00:14:39;;;;;;;3.67;3.47;;;22.80;99.90;;;;;;5071052;28;20602;-73
2021/07/16 00:17:05;;;;;;;4.60;4.20;;;22.90;99.90;;;;;;5071047;28;20253;-73
2021/07/16 00:19:33;;;;;;;4.75;4.35;;;22.80;99.90;;;;;;5070913;28;20273;-73
2021/07/16 00:22:00;;;;;;;5.10;4.20;;;22.80;99.90;;;;;;5070579;28;20257;-73
2021/07/16 00:24:26;;;;;;;4.30;4.00;;;22.80;99.90;;;;;;5070772;28;20207;-72
2021/07/16 00:26:53;;;;;;;4.57;4.30;;;22.80;99.90;;;;;;5070691;28;20239;-73
2021/07/16 00:29:20;;;;;;;4.07;3.88;;;22.80;99.90;;;;;;5070449;28;20203;-73
2021/07/16 00:31:46;;;;;;;4.20;3.78;;;22.90;99.90;;;;;;5070725;28;20335;-73
2021/07/16 00:34:13;;;;;;;4.40;4.00;;;22.80;99.90;;;;;;5070606;28;20256;-74
2021/07/16 00:36:41;;;;;;;6.70;4.88;;;22.90;99.90;;;;;;5069041;28;20227;-74
2021/07/16 00:39:08;;;;;;;4.32;4.03;;;22.90;99.90;;;;;;5070700;28;20577;-74
2021/07/16 00:41:34;;;;;;;4.50;4.18;;;22.90;99.90;;;;;;5070302;28;20207;-74
2021/07/16 00:44:02;;;;;;;4.28;4.00;;;22.80;99.90;;;;;;5070361;28;20255;-74
2021/07/16 00:46:29;;;;;;;4.38;4.15;;;22.80;99.90;;;;;;5070609;28;20215;-74
2021/07/16 00:48:55;;;;;;;4.25;3.95;;;22.80;99.90;;;;;;5070143;28;20658;-74
2021/07/16 00:51:22;;;;;;;4.35;3.90;;;22.80;99.90;;;;;;5070411;28;20263;-74
2021/07/16 00:53:50;;;;;;;4.82;4.43;;;22.70;99.90;;;;;;5070482;28;20215;-74
2021/07/16 00:56:17;;;;;;;4.60;4.20;;;22.70;99.90;;;;;;5070181;28;20617;-74
2021/07/16 00:58:43;;;;;;;4.72;4.43;;;22.70;99.90;;;;;;5070383;28;20622;-74
2021/07/16 01:01:10;;;;;;;4.45;4.15;;;22.70;99.90;;;;;;5069937;28;20227;-74
2021/07/16 01:03:37;;;;;;;4.75;4.35;;;22.60;99.90;;;;;;5070038;28;20662;-74
2021/07/16 01:06:04;;;;;;;5.35;4.93;;;22.60;99.90;;;;;;5070009;28;20687;-72
2021/07/16 01:08:31;;;;;;;5.30;4.40;;;22.50;99.90;;;;;;5069936;28;20235;-72
2021/07/16 01:11:00;;;;;;;4.68;4.28;;;22.50;99.90;;;;;;5070039;28;20192;-73
2021/07/16 01:13:27;;;;;;;4.30;4.05;;;22.50;99.90;;;;;;5069377;28;20965;-72
2021/07/16 01:15:55;;;;;;;4.78;4.32;;;22.50;99.90;;;;;;5049739;28;20251;-72
2021/07/16 01:18:22;;;;;;;4.88;4.40;;;22.40;99.90;;;;;;5049459;28;20847;-72
2021/07/16 01:20:49;;;;;;;4.32;4.03;;;22.40;99.90;;;;;;5049791;28;20216;-72
2021/07/16 01:23:18;;;;;;;4.18;3.95;;;22.40;99.90;;;;;;5049346;28;20720;-72
2021/07/16 01:25:45;;;;;;;4.30;4.03;;;22.40;99.90;;;;;;5049893;28;20670;-72
2021/07/16 01:28:12;;;;;;;4.95;4.00;;;22.40;99.90;;;;;;5049154;28;20693;-72
2021/07/16 01:30:39;;;;;;;4.60;4.30;;;22.40;99.90;;;;;;5049289;28;20208;-72
2021/07/16 01:33:06;;;;;;;4.35;4.15;;;22.40;99.90;;;;;;5049074;28;20862;-72
2021/07/16 01:35:33;;;;;;;4.43;4.13;;;22.40;99.90;;;;;;5049514;28;20212;-72
2021/07/16 01:38:00;;;;;;;3.85;3.63;;;22.30;99.90;;;;;;5049410;28;20261;-72
2021/07/16 01:40:32;;;;;;;4.18;3.95;;;22.30;99.90;;;;;;5049508;28;20207;-72
2021/07/16 01:42:59;;;;;;;3.92;3.63;;;22.30;99.90;;;;;;5049242;28;20251;-72
2021/07/16 01:45:29;;;;;;;5.22;3.63;;;22.30;99.90;;;;;;5048974;28;20724;-73
2021/07/16 01:47:59;;;;;;;3.80;3.50;;;22.20;99.90;;;;;;5048684;28;20744;-74
2021/07/16 01:50:27;;;;;;;4.05;3.45;;;22.20;99.90;;;;;;5049012;28;20670;-74
2021/07/16 01:52:54;;;;;;;4.15;3.85;;;22.20;99.90;;;;;;5049202;28;20224;-74
2021/07/16 01:55:23;;;;;;;5.25;4.05;;;22.20;99.90;;;;;;5049147;28;20226;-74
2021/07/16 01:57:53;;;;;;;4.00;3.70;;;22.20;99.90;;;;;;5049012;28;20431;-74
2021/07/16 02:00:22;;;;;;;3.78;3.45;;;22.20;99.90;;;;;;5048730;28;20612;-74
2021/07/16 02:02:50;;;;;;;4.20;3.90;;;22.20;99.90;;;;;;5049043;28;20212;-74
2021/07/16 02:05:17;;;;;;;3.67;3.47;;;22.20;99.90;;;;;;5049183;28;20254;-74
2021/07/16 02:07:44;;;;;;;3.80;3.60;;;22.10;99.90;;;;;;5048783;28;20639;-74
2021/07/16 02:10:11;;;;;;;4.57;4.38;;;22.10;99.90;;;;;;5048448;28;20294;-74
2021/07/16 02:12:38;;;;;;;4.20;3.85;;;22.10;99.90;;;;;;5048903;28;20228;-73
2021/07/16 02:15:11;;;;;;;4.10;3.73;;;22.10;99.90;;;;;;5048776;28;20208;-73
2021/07/16 02:17:38;;;;;;;4.23;3.83;;;22.10;99.90;;;;;;5048876;28;20207;-75
2021/07/16 02:20:06;;;;;;;4.30;3.85;;;22.10;99.90;;;;;;5048710;28;20219;-75
2021/07/16 02:22:34;;;;;;;4.15;3.92;;;22.00;99.90;;;;;;5048604;28;21063;-74
2021/07/16 02:25:01;;;;;;;4.07;3.67;;;22.00;99.90;;;;;;5048843;28;20208;-74
2021/07/16 02:27:27;;;;;;;5.97;3.75;;;22.00;99.90;;;;;;5048368;28;20765;-73
2021/07/16 02:29:56;;;;;;;3.97;3.72;;;22.00;99.90;;;;;;5048606;28;20227;-74
2021/07/16 02:32:24;;;;;;;4.10;3.80;;;21.90;99.90;;;;;;5048411;28;20234;-72
2021/07/16 02:34:51;;;;;;;3.85;3.55;;;22.00;99.90;;;;;;5048433;28;20204;-72
2021/07/16 02:37:17;;;;;;;4.37;4.07;;;21.90;99.90;;;;;;5065571;28;20269;-72
2021/07/16 02:39:44;;;;;;;4.75;4.00;;;21.90;99.90;;;;;;5068150;28;20199;-73
2021/07/16 02:42:10;;;;;;;4.10;3.80;;;21.90;99.90;;;;;;5067874;28;20393;-74
2021/07/16 02:44:37;;;;;;;4.57;4.18;;;21.90;99.90;;;;;;5065589;28;20609;-72
2021/07/16 02:47:04;;;;;;;5.30;3.80;;;21.90;99.90;;;;;;5064623;28;20229;-76
2021/07/16 02:49:32;;;;;;;3.92;3.67;;;21.80;99.90;;;;;;5066014;28;20204;-75
2021/07/16 02:51:59;;;;;;;4.17;3.70;;;21.70;99.90;;;;;;5066208;28;20339;-78
2021/07/16 02:54:25;;;;;;;3.93;3.50;;;21.60;99.90;;;;;;5066163;28;20215;-77
2021/07/16 02:56:52;;;;;;;3.90;3.70;;;21.70;99.90;;;;;;5065962;28;20284;-76
2021/07/16 02:59:19;;;;;;;3.97;3.67;;;21.70;99.90;;;;;;5068117;28;20230;-76
2021/07/16 03:01:55;;;;;;;4.13;3.72;;;21.70;99.90;;;;;;5070340;28;20224;-76
2021/07/16 03:04:22;;;;;;;3.77;3.57;;;21.70;99.90;;;;;;5070003;28;20831;-76
2021/07/16 03:06:50;;;;;;;5.47;4.03;;;21.70;99.90;;;;;;5070546;28;20254;-76
2021/07/16 03:09:17;;;;;;;4.22;3.88;;;21.70;99.90;;;;;;5069986;28;20622;-76
2021/07/16 03:11:44;;;;;;;3.83;3.63;;;21.70;99.90;;;;;;5070498;28;20249;-76
2021/07/16 03:14:10;;;;;;;4.22;3.83;;;21.70;99.90;;;;;;5069846;28;20730;-76
2021/07/16 03:16:37;;;;;;;3.78;3.58;;;21.70;99.90;;;;;;5070217;28;20222;-75
2021/07/16 03:19:04;;;;;;;3.95;3.65;;;21.70;99.90;;;;;;5069950;28;20211;-76
2021/07/16 03:21:31;;;;;;;4.57;4.17;;;21.70;99.90;;;;;;5056927;28;20238;-73
2021/07/16 03:23:59;;;;;;;3.97;3.67;;;21.70;99.90;;;;;;5059005;28;20287;-73
2021/07/16 03:26:26;;;;;;;4.60;4.40;;;21.70;99.90;;;;;;5071079;28;20292;-73
2021/07/16 03:28:53;;;;;;;4.23;3.83;;;21.70;99.90;;;;;;5070719;28;20661;-73
2021/07/16 03:31:19;;;;;;;4.50;4.10;;;21.70;99.90;;;;;;5071537;28;20231;-73
2021/07/16 03:33:46;;;;;;;3.87;3.63;;;21.70;99.90;;;;;;5071848;28;20234;-73
2021/07/16 03:36:13;;;;;;;4.33;3.80;;;21.70;99.90;;;;;;5071651;28;20296;-73
2021/07/16 03:38:40;;;;;;;5.97;5.47;;;21.70;99.90;;;;;;5071884;28;20312;-73
2021/07/16 03:41:11;;;;;;;5.23;4.83;;;21.70;99.90;;;;;;5071652;28;20263;-72
2021/07/16 03:43:37;;;;;;;4.40;4.10;;;21.70;99.90;;;;;;5071803;28;20206;-73
2021/07/16 03:46:04;;;;;;;3.85;3.65;;;21.70;99.90;;;;;;5071608;28;20222;-73
2021/07/16 03:48:32;;;;;;;3.97;3.77;;;21.70;99.90;;;;;;5071343;28;20625;-73
2021/07/16 03:50:59;;;;;;;6.63;5.97;;;21.70;99.90;;;;;;5071273;28;20257;-73
2021/07/16 03:53:25;;;;;;;5.97;5.40;;;21.70;99.90;;;;;;5071524;28;20255;-73
2021/07/16 03:55:52;;;;;;;4.93;4.63;;;21.70;99.90;;;;;;5071321;28;20199;-73
2021/07/16 03:58:20;;;;;;;4.33;4.03;;;21.70;99.90;;;;;;5071211;28;20265;-73
2021/07/16 04:00:47;;;;;;;6.10;4.30;;;21.70;99.90;;;;;;5071199;28;20223;-73
2021/07/16 04:03:15;;;;;;;5.13;4.45;;;21.70;99.90;;;;;;5071120;28;20673;-73
2021/07/16 04:05:42;;;;;;;4.80;4.37;;;21.70;99.90;;;;;;5071253;28;20280;-73
2021/07/16 04:08:15;;;;;;;5.60;5.10;;;21.70;99.90;;;;;;5070733;28;20211;-73
2021/07/16 04:10:42;;;;;;;5.07;4.60;;;21.70;99.90;;;;;;5070856;28;20206;-73
2021/07/16 04:13:10;;;;;;;5.40;4.73;;;21.70;99.90;;;;;;5070737;28;20271;-73
2021/07/16 04:15:39;;;;;;;5.50;4.87;;;21.70;99.90;;;;;;5071187;28;20208;-73
2021/07/16 04:18:08;;;;;;;5.53;5.00;;;21.70;99.90;;;;;;5070916;28;20203;-73
2021/07/16 04:20:36;;;;;;;4.93;4.63;;;21.70;99.90;;;;;;5070948;28;20293;-73
2021/07/16 04:23:04;;;;;;;4.70;4.30;;;21.70;99.90;;;;;;5070892;28;20208;-73
2021/07/16 04:25:31;;;;;;;5.10;4.70;;;21.70;99.90;;;;;;5070530;28;20239;-73
2021/07/16 04:28:00;;;;;;;5.38;4.90;;;21.60;99.90;;;;;;5070681;28;20605;-73
2021/07/16 04:30:27;;;;;;;7.23;4.57;;;21.60;99.90;;;;;;5070263;28;20760;-73
2021/07/16 04:32:59;;;;;;;5.47;4.90;;;21.70;99.90;;;;;;5070625;28;20316;-73
2021/07/16 04:35:26;;;;;;;5.70;4.80;;;21.70;99.90;;;;;;5070557;28;20232;-73
2021/07/16 04:37:52;;;;;;;4.63;4.23;;;21.70;99.90;;;;;;5070468;28;20207;-73
2021/07/16 04:40:21;;;;;;;6.78;4.80;;;21.70;99.90;;;;;;5070465;28;20284;-73
2021/07/16 04:42:48;;;;;;;10.40;4.80;;;21.70;99.90;;;;;;5070129;28;20273;-73
2021/07/16 04:45:15;;;;;;;4.90;4.60;;;21.80;99.90;;;;;;5070035;28;20672;-73
2021/07/16 04:47:42;;;;;;;5.05;4.70;;;21.80;99.90;;;;;;5070262;28;20292;-73
2021/07/16 04:50:11;;;;;;;6.05;4.80;;;21.80;99.90;;;;;;5070136;28;20207;-73
2021/07/16 04:52:39;;;;;;;6.55;4.97;;;21.80;99.90;;;;;;5070143;28;20227;-73
2021/07/16 04:55:07;;;;;;;5.40;5.00;;;21.90;99.90;;;;;;5070140;28;20265;-73
2021/07/16 04:57:34;;;;;;;7.45;5.55;;;21.90;99.90;;;;;;5070046;28;20219;-73
2021/07/16 05:00:00;;;;;;;5.82;5.43;;;21.80;99.90;;;;;;5069947;28;20705;-73
2021/07/16 05:02:27;;;;;;;6.17;5.57;;;21.70;99.90;;;;;;5070179;28;20203;-73
2021/07/16 05:04:54;;;;;;;6.03;5.50;;;21.70;99.90;;;;;;5070193;28;20312;-73
2021/07/16 05:07:22;;;;;;;5.80;5.40;;;21.80;99.90;;;;;;5070014;28;20207;-73
2021/07/16 05:09:49;;;;;;;6.67;6.00;;;21.80;99.90;;;;;;5069598;28;20235;-73
2021/07/16 05:12:16;;;;;;;6.80;6.30;;;21.90;99.90;;;;;;5069771;28;20207;-73
2021/07/16 05:14:43;;;;;;;6.45;5.95;;;21.90;99.90;;;;;;5069648;28;20231;-73
2021/07/16 05:17:09;;;;;;;6.82;5.80;;;21.90;99.90;;;;;;5070017;28;20211;-73
2021/07/16 05:19:36;;;;;;;5.90;5.50;;;21.90;99.90;;;;;;5068371;28;20242;-73
2021/07/16 05:22:03;;;;;;;6.23;5.47;;;22.00;99.90;;;;;;5067080;28;20211;-73
2021/07/16 05:24:31;;;;;;;6.17;5.60;;;22.00;99.90;;;;;;5069569;28;20239;-73
2021/07/16 05:26:58;;;;;;;6.35;5.78;;;22.10;99.90;;;;;;5069563;28;20249;-73
2021/07/16 05:29:24;;;;;;;6.97;6.18;;;22.10;99.90;;;;;;5069596;28;20207;-73
2021/07/16 05:31:51;;;;;;;6.63;6.10;;;22.00;99.90;;;;;;5069520;28;20219;-73
2021/07/16 05:34:18;;;;;;;6.73;6.23;;;22.00;99.90;;;;;;5069378;28;20227;-73
2021/07/16 05:36:45;;;;;;;7.43;6.80;;;22.00;99.90;;;;;;5069410;28;20277;-73
2021/07/16 05:39:11;;;;;;;7.30;6.75;;;22.00;99.90;;;;;;5069400;28;20208;-73
2021/07/16 05:41:39;;;;;;;7.35;6.68;;;22.00;99.90;;;;;;5069083;28;20212;-73
2021/07/16 05:44:06;;;;;;;7.45;6.80;;;21.90;99.90;;;;;;5069134;28;20207;-73
2021/07/16 05:46:33;;;;;;;6.97;6.47;;;21.80;99.90;;;;;;5069292;28;20265;-73
2021/07/16 05:48:59;;;;;;;6.93;6.45;;;21.80;99.90;;;;;;5068873;28;20658;-73
2021/07/16 05:51:26;;;;;;;7.30;6.50;;;21.70;99.90;;;;;;5069106;28;20237;-73
2021/07/16 05:53:53;;;;;;;6.67;6.07;;;21.70;99.90;;;;;;5068963;28;20231;-73
2021/07/16 05:56:19;;;;;;;9.43;7.50;;;21.70;99.90;;;;;;5068946;28;20207;-73
2021/07/16 05:58:47;;;;;;;6.67;6.17;;;21.70;99.90;;;;;;5068745;28;20265;-73
2021/07/16 06:01:14;;;;;;;6.32;5.72;;;21.70;99.90;;;;;;5068860;28;20219;-73
2021/07/16 06:03:41;;;;;;;6.60;6.10;;;21.80;99.90;;;;;;5068714;28;20235;-73
2021/07/16 06:06:08;;;;;;;6.75;6.05;;;21.80;99.90;;;;;;5069026;28;20261;-73
2021/07/16 06:08:35;;;;;;;6.10;5.78;;;21.90;99.90;;;;;;5068625;28;20246;-73
2021/07/16 06:11:01;;;;;;;6.23;5.73;;;21.90;99.90;;;;;;5068937;28;20195;-73
2021/07/16 06:13:28;;;;;;;6.77;6.20;;;21.90;99.90;;;;;;5068400;28;20773;-73
2021/07/16 06:15:56;;;;;;;6.50;5.83;;;21.80;99.90;;;;;;5068876;28;20639;-73
2021/07/16 06:18:23;;;;;;;7.13;6.53;;;21.90;99.90;;;;;;5068823;28;20237;-73
2021/07/16 06:20:50;;;;;;;7.67;7.03;;;21.90;99.90;;;;;;5068747;28;20214;-74
2021/07/16 06:23:17;;;;;;;7.13;6.47;;;21.90;99.90;;;;;;5068382;28;20300;-73
2021/07/16 06:25:44;;;;;;;6.57;6.00;;;21.90;99.90;;;;;;5068666;28;21154;-73
2021/07/16 06:28:10;;;;;;;6.70;6.10;;;21.90;99.90;;;;;;5068564;28;20199;-73
2021/07/16 06:30:38;;;;;;;6.40;5.83;;;21.90;99.90;;;;;;5068389;28;20200;-73
2021/07/16 06:33:06;;;;;;;6.70;6.20;;;22.00;99.90;;;;;;5068016;28;20207;-73
2021/07/16 06:35:32;;;;;;;9.53;5.70;;;22.00;99.90;;;;;;5068176;28;20220;-73
2021/07/16 06:37:59;;;;;;;6.87;6.27;;;22.10;99.90;;;;;;5068550;28;20292;-73
2021/07/16 06:40:26;;;;;;;6.20;5.70;;;22.10;99.90;;;;;;5068504;28;20241;-73
2021/07/16 06:42:52;;;;;;;7.47;6.27;;;22.10;99.90;;;;;;5068389;28;20226;-73
2021/07/16 06:45:19;;;;;;;6.33;5.77;;;22.20;99.90;;;;;;5068250;28;20245;-73
2021/07/16 06:47:46;;;;;;;6.27;5.67;;;22.20;99.90;;;;;;5068470;28;20207;-73
2021/07/16 06:50:13;;;;;;;6.60;6.20;;;22.30;99.90;;;;;;5068389;28;20207;-73
2021/07/16 06:52:40;;;;;;;6.07;5.63;;;22.40;99.90;;;;;;5067797;28;20657;-73
2021/07/16 06:55:08;;;;;;;5.65;5.25;;;22.50;99.90;;;;;;5068267;28;20235;-73
2021/07/16 06:57:35;;;;;;;7.10;5.40;;;22.50;99.90;;;;;;5068245;28;20264;-73
2021/07/16 07:00:01;;;;;;;8.00;5.85;;;22.60;99.90;;;;;;5068192;28;20262;-73
2021/07/16 07:02:28;;;;;;;5.68;5.20;;;22.70;99.90;;;;;;5067760;28;20212;-73
2021/07/16 07:04:55;;;;;;;6.25;5.53;;;22.70;99.90;;;;;;5068153;28;20199;-73
2021/07/16 07:07:23;;;;;;;5.65;5.30;;;22.80;99.90;;;;;;5067658;28;20199;-73
2021/07/16 07:09:49;;;;;;;6.57;6.00;;;22.80;99.90;;;;;;5067743;28;20232;-73
2021/07/16 07:12:16;;;;;;;6.38;5.72;;;22.90;99.90;;;;;;5067766;28;20805;-73
2021/07/16 07:14:42;;;;;;;6.63;5.97;;;22.90;99.90;;;;;;5068000;28;20231;-73
2021/07/16 07:17:09;;;;;;;8.52;6.00;;;22.90;99.90;;;;;;5067888;28;20261;-73
2021/07/16 07:19:36;;;;;;;6.47;6.03;;;23.00;99.90;;;;;;5067776;28;20367;-73
2021/07/16 07:22:03;;;;;;;7.97;6.05;;;23.00;99.90;;;;;;5067988;28;20208;-73
2021/07/16 07:24:31;;;;;;;6.18;5.68;;;23.10;99.90;;;;;;5067945;28;20257;-73
2021/07/16 07:26:58;;;;;;;6.30;5.82;;;23.10;99.90;;;;;;5067928;28;20249;-73
2021/07/16 07:29:25;;;;;;;10.85;6.07;;;23.10;99.90;;;;;;5067903;28;20211;-73
2021/07/16 07:31:51;;;;;;;6.82;5.68;;;23.20;99.90;;;;;;5067749;28;20203;-73
2021/07/16 07:34:18;;;;;;;6.18;5.68;;;23.20;99.90;;;;;;5067300;28;20227;-73
2021/07/16 07:36:47;;;;;;;6.03;5.63;;;23.30;99.90;;;;;;5067703;28;20230;-73
2021/07/16 07:39:14;;;;;;;6.93;6.43;;;23.30;99.90;;;;;;5067616;28;20207;-73
2021/07/16 07:41:45;;;;;;;7.18;6.68;;;23.30;99.90;;;;;;5067766;28;20203;-73
2021/07/16 07:44:12;;;;;;;6.75;6.00;;;23.40;99.90;;;;;;5067922;28;20192;-73
2021/07/16 07:46:39;;;;;;;7.45;5.70;;;23.40;99.90;;;;;;5071438;28;20304;-73
2021/07/16 07:49:07;;;;;;;5.72;5.30;;;23.50;99.90;;;;;;5071604;28;20261;-73
2021/07/16 07:51:34;;;;;;;6.30;5.80;;;23.50;99.90;;;;;;5071519;28;20207;-73
2021/07/16 07:54:01;;;;;;;6.50;5.93;;;23.50;99.90;;;;;;5071093;28;20334;-73
2021/07/16 07:56:28;;;;;;;8.07;6.65;;;23.50;99.90;;;;;;5071667;28;20211;-73
2021/07/16 07:58:56;;;;;;;7.63;6.80;;;23.60;99.90;;;;;;5071337;28;20277;-73
2021/07/16 08:01:24;;;;;;;8.82;6.57;;;23.70;99.90;;;;;;5071117;28;20312;-73
2021/07/16 08:03:51;;;;;;;8.50;6.03;;;23.70;99.90;;;;;;5071333;28;20211;-73
2021/07/16 08:06:17;;;;;;;6.65;5.97;;;23.80;99.90;;;;;;5071040;28;20718;-73
2021/07/16 08:08:44;;;;;;;7.10;6.20;;;23.80;99.90;;;;;;5070847;28;20235;-73
2021/07/16 08:11:11;;;;;;;6.53;6.00;;;23.80;99.90;;;;;;5071471;28;20620;-73
2021/07/16 08:13:38;;;;;;;6.80;6.20;;;23.80;99.90;;;;;;5070829;28;20207;-73
2021/07/16 08:16:06;;;;;;;7.57;6.57;;;23.90;99.90;;;;;;5071209;28;20203;-73
2021/07/16 08:18:33;;;;;;;6.43;5.82;;;24.00;99.90;;;;;;5071172;28;20292;-73
2021/07/16 08:20:59;;;;;;;7.60;6.40;;;24.00;99.90;;;;;;5070902;28;20226;-74
2021/07/16 08:23:26;;;;;;;6.30;5.80;;;24.00;99.90;;;;;;5070811;28;20235;-73
2021/07/16 08:25:53;;;;;;;6.38;5.78;;;24.00;99.90;;;;;;5071048;28;20211;-73
2021/07/16 08:28:19;;;;;;;6.43;5.85;;;24.10;99.90;;;;;;5070373;28;20665;-73
2021/07/16 08:30:46;;;;;;;8.00;5.88;;;24.20;99.90;;;;;;5070736;28;20208;-73
2021/07/16 08:33:14;;;;;;;8.25;6.63;;;24.20;99.90;;;;;;5070846;28;20200;-73
2021/07/16 08:35:40;;;;;;;8.43;6.18;;;24.30;99.90;;;;;;5070468;28;20270;-73
2021/07/16 08:38:07;;;;;;;6.82;6.18;;;24.40;99.90;;;;;;5070762;28;20619;-73
2021/07/16 08:40:36;;;;;;;8.95;6.25;;;24.40;99.90;;;;;;5070378;28;20268;-73
2021/07/16 08:43:03;;;;;;;6.25;5.70;;;24.50;99.90;;;;;;5070439;28;20238;-73
2021/07/16 08:45:30;;;;;;;7.68;6.22;;;24.50;99.90;;;;;;5070665;28;20211;-73
2021/07/16 08:47:57;;;;;;;7.20;6.50;;;24.60;99.90;;;;;;5070607;28;20261;-73
2021/07/16 08:50:27;;;;;;;6.97;6.38;;;24.70;99.90;;;;;;5070294;28;20260;-73
2021/07/16 08:53:01;;;;;;;6.75;6.15;;;24.80;99.90;;;;;;5070080;28;20785;-73
2021/07/16 08:55:31;;;;;;;7.60;6.30;;;24.90;99.90;;;;;;5069951;28;20230;-73
2021/07/16 08:57:58;;;;;;;6.85;6.25;;;24.90;99.90;;;;;;5069486;28;20220;-73
2021/07/16 09:00:24;;;;;;;7.07;6.38;;;24.80;99.90;;;;;;5069755;28;20712;-73
2021/07/16 09:02:54;;;;;;;7.53;6.13;;;24.90;99.90;;;;;;5070136;28;20211;-74
2021/07/16 09:05:36;;;;;;;7.30;6.70;;;24.90;99.90;;;;;;5070082;28;20211;-73
2021/07/16 09:08:04;;;;;;;7.05;6.45;;;25.00;99.90;;;;;;5069913;28;20222;-73
2021/07/16 09:10:31;;;;;;;7.20;6.50;;;25.20;99.90;;;;;;5069883;28;20192;-73
2021/07/16 09:12:59;;;;;;;6.95;6.38;;;25.20;99.90;;;;;;5070043;28;20219;-73
2021/07/16 09:15:26;;;;;;;7.18;6.57;;;25.30;99.90;;;;;;5069697;28;20356;-73
2021/07/16 09:18:20;;;;;;;7.43;6.82;;;25.50;99.90;;;;;;5069907;28;20219;-73
2021/07/16 09:21:06;;;;;;;8.05;6.50;;;25.60;99.90;;;;;;5069695;28;20192;-73
2021/07/16 09:23:34;;;;;;;7.72;6.90;;;25.80;99.90;;;;;;5069609;28;20237;-73
2021/07/16 09:26:07;;;;;;;7.85;7.20;;;25.80;99.90;;;;;;5069624;28;20214;-73
2021/07/16 09:28:34;;;;;;;8.07;7.32;;;25.70;99.90;;;;;;5069451;28;20196;-73
2021/07/16 09:31:14;;;;;;;7.78;6.93;;;25.60;99.90;;;;;;5069516;28;20204;-73
2021/07/16 09:33:48;;;;;;;8.00;7.40;;;25.70;99.90;;;;;;5069173;28;20214;-74
2021/07/16 09:36:31;;;;;;;7.32;6.72;;;25.80;99.90;;;;;;5069399;28;20640;-73
2021/07/16 09:39:05;;;;;;;7.75;6.93;;;25.80;99.90;;;;;;5069568;28;20207;-73
2021/07/16 09:41:32;;;;;;;7.63;7.00;;;25.90;99.90;;;;;;5069241;28;20246;-73
2021/07/16 09:44:00;;;;;;;7.53;6.88;;;26.00;99.90;;;;;;5069260;28;20203;-73
2021/07/16 09:46:27;;;;;;;8.68;7.75;;;26.10;99.90;;;;;;5069145;28;20290;-73
2021/07/16 09:48:54;;;;;;;7.97;7.30;;;26.20;99.90;;;;;;5069189;28;20241;-73
2021/07/16 09:51:23;;;;;;;8.68;7.57;;;26.30;99.90;;;;;;5069270;28;20268;-73
2021/07/16 09:53:54;;;;;;;8.02;7.32;;;26.40;99.90;;;;;;5069029;28;20207;-73
2021/07/16 09:56:22;;;;;;;8.85;7.95;;;26.50;99.90;;;;;;5069246;28;20200;-73
2021/07/16 09:58:50;;;;;;;8.10;7.30;;;26.70;99.90;;;;;;5068631;28;20278;-73
2021/07/16 10:01:17;;;;;;;10.00;7.63;;;26.80;99.90;;;;;;5068831;28;20227;-73
2021/07/16 10:03:43;;;;;;;9.00;7.30;;;26.80;99.90;;;;;;5068941;28;20253;-73
2021/07/16 10:06:15;;;;;;;8.23;7.40;;;26.90;99.90;;;;;;5068997;28;20222;-73
2021/07/16 10:08:42;;;;;;;8.45;6.72;;;27.10;99.90;;;;;;5068362;28;20235;-73
2021/07/16 10:11:19;;;;;;;7.80;7.10;;;27.10;99.90;;;;;;5069176;28;20251;-73
2021/07/16 10:13:48;;;;;;;7.47;6.47;;;27.20;99.90;;;;;;5068131;28;20731;-73
2021/07/16 10:16:15;;;;;;;9.35;6.93;;;27.20;99.90;;;;;;5068511;28;20235;-73
2021/07/16 10:18:42;;;;;;;7.85;7.15;;;27.20;99.90;;;;;;5068600;28;20288;-73
2021/07/16 10:21:09;;;;;;;8.20;6.57;;;27.20;99.90;;;;;;5068724;28;20249;-73
2021/07/16 10:23:39;;;;;;;7.68;7.03;;;27.10;99.90;;;;;;5068678;28;20633;-73
2021/07/16 10:26:10;;;;;;;8.13;7.10;;;27.10;99.90;;;;;;5068609;28;20640;-73
2021/07/16 10:28:41;;;;;;;7.55;6.75;;;27.10;99.90;;;;;;5068141;28;20231;-73
2021/07/16 10:31:33;;;;;;;7.20;6.60;;;27.10;99.90;;;;;;5068358;28;20650;-73
2021/07/16 10:34:02;;;;;;;8.07;7.50;;;27.20;99.90;;;;;;5068404;28;20192;-73
2021/07/16 10:36:42;;;;;;;7.30;6.70;;;27.20;99.90;;;;;;5068313;28;20231;-73
2021/07/16 10:39:11;;;;;;;9.05;7.07;;;27.20;99.90;;;;;;5068471;28;20203;-73
2021/07/16 10:41:41;;;;;;;7.93;7.03;;;27.20;99.90;;;;;;5067901;28;20571;-73
2021/07/16 10:44:08;;;;;;;8.05;6.90;;;27.20;99.90;;;;;;5068233;28;20207;-73
2021/07/16 10:46:36;;;;;;;9.68;7.47;;;27.20;99.90;;;;;;5068188;28;20203;-73
2021/07/16 10:49:05;;;;;;;7.65;7.13;;;27.20;99.90;;;;;;5068046;28;20558;-73
2021/07/16 10:51:35;;;;;;;9.98;7.25;;;27.10;99.90;;;;;;5068302;28;20203;-73
2021/07/16 10:54:04;;;;;;;7.80;7.13;;;27.10;99.90;;;;;;5068126;28;20195;-74
2021/07/16 10:56:40;;;;;;;7.47;6.78;;;27.20;99.90;;;;;;5068201;28;20231;-73
2021/07/16 10:59:07;;;;;;;6.97;6.38;;;27.30;99.90;;;;;;5068023;28;20210;-73
2021/07/16 11:01:37;;;;;;;7.25;6.40;;;27.60;99.90;;;;;;5067877;28;20661;-73
2021/07/16 11:04:05;;;;;;;9.35;7.38;;;27.70;99.90;;;;;;5068316;28;20294;-73
2021/07/16 11:06:52;;;;;;;7.43;6.93;;;28.00;99.90;;;;;;5068104;28;20208;-73
2021/07/16 11:09:42;;;;;;;7.93;7.13;;;28.30;99.90;;;;;;5067810;28;20239;-73
2021/07/16 11:12:37;;;;;;;7.22;6.72;;;28.40;99.90;;;;;;5067920;28;20195;-73
2021/07/16 11:15:05;;;;;;;7.80;7.03;;;28.30;99.90;;;;;;5020579;28;20300;-73
2021/07/16 11:17:36;;;;;;;8.70;7.30;;;28.20;99.90;;;;;;5068050;28;20264;-73
2021/07/16 11:20:17;;;;;;;11.38;6.85;;;28.10;99.90;;;;;;5069708;28;20223;-73
2021/07/16 11:23:01;;;;;;;7.65;7.05;;;28.00;99.90;;;;;;5071979;28;20199;-73
2021/07/16 11:25:29;;;;;;;7.30;6.60;;;28.00;99.90;;;;;;5071881;28;20226;-73
2021/07/16 11:27:57;;;;;;;7.40;6.72;;;28.00;99.90;;;;;;5072091;28;20219;-73
2021/07/16 11:30:24;;;;;;;7.47;6.78;;;28.10;99.90;;;;;;5071672;28;20769;-73
2021/07/16 11:32:51;;;;;;;7.32;6.57;;;28.30;99.90;;;;;;5071614;28;20207;-74
2021/07/16 11:35:18;;;;;;;7.18;6.68;;;28.60;99.90;;;;;;5071854;28;20223;-73
2021/07/16 11:37:48;;;;;;;8.07;7.03;;;28.90;99.90;;;;;;5071457;28;20207;-73
2021/07/16 11:40:18;;;;;;;7.43;6.82;;;29.10;99.90;;;;;;5071816;28;20211;-73
2021/07/16 11:42:49;;;;;;;6.82;6.35;;;29.30;99.90;;;;;;5071563;28;20195;-73
2021/07/16 11:45:22;;;;;;;6.50;6.03;;;29.50;99.90;;;;;;5071755;28;20195;-73
2021/07/16 11:47:49;;;;;;;7.68;6.38;;;29.60;99.90;;;;;;5071230;28;20231;-73
2021/07/16 11:50:17;;;;;;;6.72;6.22;;;29.60;99.90;;;;;;5071688;28;20676;-73
2021/07/16 11:52:48;;;;;;;7.60;6.53;;;29.50;99.90;;;;;;5071301;28;20239;-73
2021/07/16 11:55:16;;;;;;;7.43;6.15;;;29.40;99.90;;;;;;5071364;28;20235;-73
2021/07/16 11:57:51;;;;;;;6.15;5.53;;;29.30;99.90;;;;;;5071305;28;20211;-73
2021/07/16 12:00:20;;;;;;;6.63;5.80;;;29.10;99.90;;;;;;5071247;28;20227;-73
2021/07/16 12:02:47;;;;;;;7.93;6.22;;;29.00;99.90;;;;;;5071222;28;20282;-73
2021/07/16 12:05:15;;;;;;;6.07;5.50;;;29.00;99.90;;;;;;5071367;28;20204;-73
2021/07/16 12:07:44;;;;;;;5.93;5.43;;;29.20;99.90;;;;;;5071338;28;20210;-73
2021/07/16 12:10:12;;;;;;;7.50;6.65;;;29.50;99.90;;;;;;5070801;28;20709;-73
2021/07/16 12:12:39;;;;;;;8.43;6.22;;;29.80;99.90;;;;;;5071122;28;20261;-73
2021/07/16 12:15:08;;;;;;;6.55;6.15;;;29.90;99.90;;;;;;5071046;28;20227;-74
2021/07/16 12:17:37;;;;;;;6.60;5.95;;;29.90;99.90;;;;;;5071035;28;20211;-73
2021/07/16 12:20:08;;;;;;;6.45;5.93;;;29.80;99.90;;;;;;5071139;28;20269;-73
2021/07/16 12:22:36;;;;;;;6.80;6.22;;;29.60;99.90;;;;;;5070650;28;20261;-73
2021/07/16 12:25:06;;;;;;;7.20;6.13;;;29.60;99.90;;;;;;5070823;28;20207;-74
2021/07/16 12:27:33;;;;;;;6.75;6.35;;;29.70;99.90;;;;;;5070409;28;20662;-73
2021/07/16 12:30:01;;;;;;;7.07;6.43;;;29.90;99.90;;;;;;5070890;28;20256;-73
2021/07/16 12:32:38;;;;;;;5.93;5.30;;;30.10;99.90;;;;;;5070403;28;20225;-74
2021/07/16 12:35:21;;;;;;;6.85;5.72;;;30.30;99.90;;;;;;5070606;28;20227;-73
2021/07/16 12:37:50;;;;;;;6.57;5.97;;;30.40;99.90;;;;;;5070578;28;20196;-73
2021/07/16 12:40:19;;;;;;;6.68;5.80;;;30.40;99.90;;;;;;5070744;28;20310;-73
2021/07/16 12:43:07;;;;;;;6.90;6.30;;;30.60;99.90;;;;;;5070592;28;20249;-73
2021/07/16 12:45:36;;;;;;;9.07;5.85;;;30.80;99.90;;;;;;5070372;28;20192;-73
2021/07/16 12:48:10;;;;;;;7.00;6.40;;;30.70;99.90;;;;;;5070547;28;20208;-73
2021/07/16 12:50:36;;;;;;;6.93;6.32;;;30.50;99.90;;;;;;5070256;28;20249;-73
2021/07/16 12:53:04;;;;;;;7.95;6.90;;;30.30;99.90;;;;;;5070310;28;20657;-73